createdAt,value
2018-12-07T21:31:37.828Z,20.80
2018-12-07T21:34:18.941Z,20.80
2018-12-07T21:36:48.677Z,20.70
2018-12-07T21:39:53.708Z,20.70
2018-12-07T21:42:24.614Z,20.70
2018-12-07T21:44:53.430Z,20.60
2018-12-07T21:47:36.023Z,20.60
2018-12-07T21:50:14.730Z,20.60
2018-12-07T21:52:44.930Z,20.60
2018-12-07T21:55:14.295Z,20.60
2018-12-07T22:01:14.970Z,20.50
2018-12-07T22:03:44.162Z,20.60
2018-12-07T22:06:13.011Z,20.50
2018-12-07T22:08:45.765Z,20.50
2018-12-07T22:11:17.158Z,20.50
2018-12-07T22:13:49.041Z,20.40
2018-12-07T22:16:18.908Z,20.40
2018-12-07T22:19:03.382Z,20.40
2018-12-07T22:21:32.180Z,20.40
2018-12-07T22:24:01.287Z,20.40
2018-12-07T22:26:30.592Z,20.40
2018-12-07T22:28:59.943Z,20.40
2018-12-07T22:41:29.969Z,20.40
2018-12-07T22:43:58.384Z,20.40
2018-12-07T22:46:27.690Z,20.40
2018-12-07T22:48:57.397Z,20.40
2018-12-07T22:51:25.742Z,20.40
2018-12-07T22:53:54.332Z,20.30
2018-12-07T22:56:22.849Z,20.30
2018-12-07T22:58:51.335Z,20.30
2018-12-07T23:01:20.409Z,20.30
2018-12-07T23:03:49.286Z,20.30
2018-12-07T23:06:18.455Z,20.30
2018-12-07T23:08:46.960Z,20.20
2018-12-07T23:11:15.571Z,20.20
2018-12-07T23:13:44.198Z,20.20
2018-12-07T23:16:12.880Z,20.20
2018-12-07T23:18:41.604Z,20.10
2018-12-07T23:21:10.164Z,20.10
2018-12-07T23:23:39.220Z,20.10
2018-12-07T23:26:07.994Z,20.10
2018-12-07T23:28:36.452Z,20.10
2018-12-07T23:31:05.068Z,20.10
2018-12-07T23:33:34.265Z,20.10
2018-12-07T23:36:05.605Z,20.00
2018-12-07T23:38:34.858Z,20.00
2018-12-07T23:41:03.509Z,20.00
2018-12-07T23:43:31.998Z,20.00
2018-12-07T23:46:00.674Z,19.90
2018-12-07T23:49:03.194Z,19.90
2018-12-07T23:51:32.098Z,19.90
2018-12-07T23:54:00.607Z,19.90
2018-12-07T23:56:29.122Z,19.90
2018-12-07T23:58:57.692Z,19.90
